Terminal Aerodrome Forecast
Issued by NWS

Home | Current Version | Previous Version | Text Only | Print | Product List | Glossary On
Versions: 1 2 3 4 5 6 7 8 9 10 11 12 13
000
FTUS42 TJSJ 301128
TAFJSJ
TAF
TJSJ 301128Z 3012/0112 12004KT P6SM FEW026 SCT080
     FM301300 07017G23KT P6SM SCT025
     FM302300 08014KT P6SM SCT025
     FM010400 10006KT P6SM SCT025=

USA.gov is the U.S. government's official web portal to all federal, state and local government web resources and services.